sensor_id;sensor_type;location;lat;lon;timestamp;P1;durP1;ratioP1;P2;durP2;ratioP2
79130;SDS011;72396;45.194;9.142;2024-02-14T00:01:41;13.75;;;6.97;;
79130;SDS011;72396;45.194;9.142;2024-02-14T00:04:08;10.77;;;7.15;;
79130;SDS011;72396;45.194;9.142;2024-02-14T00:06:36;11.88;;;6.50;;
79130;SDS011;72396;45.194;9.142;2024-02-14T00:09:03;12.25;;;6.93;;
79130;SDS011;72396;45.194;9.142;2024-02-14T00:11:29;10.65;;;7.40;;
79130;SDS011;72396;45.194;9.142;2024-02-14T00:13:54;12.73;;;7.05;;
79130;SDS011;72396;45.194;9.142;2024-02-14T00:16:21;10.57;;;6.45;;
79130;SDS011;72396;45.194;9.142;2024-02-14T00:18:46;13.30;;;7.50;;
79130;SDS011;72396;45.194;9.142;2024-02-14T00:21:12;12.60;;;8.32;;
79130;SDS011;72396;45.194;9.142;2024-02-14T00:23:38;11.00;;;7.03;;
79130;SDS011;72396;45.194;9.142;2024-02-14T00:26:03;12.63;;;7.57;;
79130;SDS011;72396;45.194;9.142;2024-02-14T00:28:28;13.20;;;6.95;;
79130;SDS011;72396;45.194;9.142;2024-02-14T00:30:54;11.95;;;7.45;;
79130;SDS011;72396;45.194;9.142;2024-02-14T00:33:20;12.18;;;7.53;;
79130;SDS011;72396;45.194;9.142;2024-02-14T00:35:47;11.02;;;6.93;;
79130;SDS011;72396;45.194;9.142;2024-02-14T00:38:12;12.75;;;7.15;;
79130;SDS011;72396;45.194;9.142;2024-02-14T00:40:37;12.93;;;7.95;;
79130;SDS011;72396;45.194;9.142;2024-02-14T00:43:03;12.23;;;7.65;;
79130;SDS011;72396;45.194;9.142;2024-02-14T00:45:28;13.20;;;7.10;;
79130;SDS011;72396;45.194;9.142;2024-02-14T00:47:54;11.93;;;7.45;;
79130;SDS011;72396;45.194;9.142;2024-02-14T00:50:19;12.88;;;6.82;;
79130;SDS011;72396;45.194;9.142;2024-02-14T00:52:45;14.63;;;7.50;;
79130;SDS011;72396;45.194;9.142;2024-02-14T00:55:10;9.68;;;6.80;;
79130;SDS011;72396;45.194;9.142;2024-02-14T00:57:36;15.02;;;7.82;;
79130;SDS011;72396;45.194;9.142;2024-02-14T01:00:01;12.73;;;8.10;;
79130;SDS011;72396;45.194;9.142;2024-02-14T01:02:28;13.48;;;7.47;;
79130;SDS011;72396;45.194;9.142;2024-02-14T01:04:55;17.27;;;7.95;;
79130;SDS011;72396;45.194;9.142;2024-02-14T01:07:20;16.42;;;7.65;;
79130;SDS011;72396;45.194;9.142;2024-02-14T01:09:46;14.38;;;7.72;;
79130;SDS011;72396;45.194;9.142;2024-02-14T01:12:11;13.10;;;7.45;;
79130;SDS011;72396;45.194;9.142;2024-02-14T01:14:37;13.10;;;8.10;;
79130;SDS011;72396;45.194;9.142;2024-02-14T01:17:02;13.23;;;7.13;;
79130;SDS011;72396;45.194;9.142;2024-02-14T01:19:28;13.02;;;7.95;;
79130;SDS011;72396;45.194;9.142;2024-02-14T01:21:54;11.60;;;8.15;;
79130;SDS011;72396;45.194;9.142;2024-02-14T01:24:21;12.45;;;7.30;;
79130;SDS011;72396;45.194;9.142;2024-02-14T01:26:47;13.98;;;7.28;;
79130;SDS011;72396;45.194;9.142;2024-02-14T01:29:12;12.25;;;7.80;;
79130;SDS011;72396;45.194;9.142;2024-02-14T01:31:38;10.52;;;7.10;;
79130;SDS011;72396;45.194;9.142;2024-02-14T01:34:03;16.15;;;7.20;;
79130;SDS011;72396;45.194;9.142;2024-02-14T01:36:29;13.43;;;7.18;;
79130;SDS011;72396;45.194;9.142;2024-02-14T01:38:54;10.65;;;8.07;;
79130;SDS011;72396;45.194;9.142;2024-02-14T01:41:20;12.38;;;7.85;;
79130;SDS011;72396;45.194;9.142;2024-02-14T01:43:46;12.15;;;7.50;;
79130;SDS011;72396;45.194;9.142;2024-02-14T01:46:12;13.98;;;7.63;;
79130;SDS011;72396;45.194;9.142;2024-02-14T01:48:37;10.63;;;7.30;;
79130;SDS011;72396;45.194;9.142;2024-02-14T01:51:04;12.75;;;7.20;;
79130;SDS011;72396;45.194;9.142;2024-02-14T01:53:33;13.82;;;7.60;;
79130;SDS011;72396;45.194;9.142;2024-02-14T01:56:01;11.27;;;8.30;;
79130;SDS011;72396;45.194;9.142;2024-02-14T01:58:27;13.65;;;7.35;;
79130;SDS011;72396;45.194;9.142;2024-02-14T02:00:54;13.80;;;7.72;;
79130;SDS011;72396;45.194;9.142;2024-02-14T02:03:24;13.40;;;7.63;;
79130;SDS011;72396;45.194;9.142;2024-02-14T02:05:51;15.48;;;7.60;;
79130;SDS011;72396;45.194;9.142;2024-02-14T02:08:18;10.85;;;7.25;;
79130;SDS011;72396;45.194;9.142;2024-02-14T02:10:44;11.13;;;6.72;;
79130;SDS011;72396;45.194;9.142;2024-02-14T02:13:10;12.90;;;7.30;;
79130;SDS011;72396;45.194;9.142;2024-02-14T02:15:35;11.10;;;7.13;;
79130;SDS011;72396;45.194;9.142;2024-02-14T02:18:02;14.27;;;7.57;;
79130;SDS011;72396;45.194;9.142;2024-02-14T02:20:31;16.95;;;7.00;;
79130;SDS011;72396;45.194;9.142;2024-02-14T02:22:58;12.02;;;7.10;;
79130;SDS011;72396;45.194;9.142;2024-02-14T02:25:24;9.32;;;6.53;;
79130;SDS011;72396;45.194;9.142;2024-02-14T02:27:51;11.40;;;6.75;;
79130;SDS011;72396;45.194;9.142;2024-02-14T02:30:23;12.30;;;7.03;;
79130;SDS011;72396;45.194;9.142;2024-02-14T02:32:50;10.95;;;6.65;;
79130;SDS011;72396;45.194;9.142;2024-02-14T02:35:16;12.57;;;6.97;;
79130;SDS011;72396;45.194;9.142;2024-02-14T02:37:42;11.75;;;6.45;;
79130;SDS011;72396;45.194;9.142;2024-02-14T02:40:10;10.32;;;7.18;;
79130;SDS011;72396;45.194;9.142;2024-02-14T02:42:37;10.90;;;6.22;;
79130;SDS011;72396;45.194;9.142;2024-02-14T02:45:03;10.45;;;6.65;;
79130;SDS011;72396;45.194;9.142;2024-02-14T02:47:31;12.02;;;6.43;;
79130;SDS011;72396;45.194;9.142;2024-02-14T02:49:57;11.52;;;6.38;;
79130;SDS011;72396;45.194;9.142;2024-02-14T02:52:26;11.88;;;7.05;;
79130;SDS011;72396;45.194;9.142;2024-02-14T02:54:52;10.93;;;6.20;;
79130;SDS011;72396;45.194;9.142;2024-02-14T02:57:18;11.13;;;6.57;;
79130;SDS011;72396;45.194;9.142;2024-02-14T02:59:44;9.27;;;6.32;;
79130;SDS011;72396;45.194;9.142;2024-02-14T03:02:11;11.18;;;5.60;;
79130;SDS011;72396;45.194;9.142;2024-02-14T03:04:37;11.27;;;6.90;;
79130;SDS011;72396;45.194;9.142;2024-02-14T03:07:03;10.07;;;5.88;;
79130;SDS011;72396;45.194;9.142;2024-02-14T03:09:31;11.50;;;6.78;;
79130;SDS011;72396;45.194;9.142;2024-02-14T03:11:57;9.98;;;5.60;;
79130;SDS011;72396;45.194;9.142;2024-02-14T03:14:23;9.93;;;6.05;;
79130;SDS011;72396;45.194;9.142;2024-02-14T03:16:48;10.93;;;6.60;;
79130;SDS011;72396;45.194;9.142;2024-02-14T03:19:13;11.13;;;6.65;;
79130;SDS011;72396;45.194;9.142;2024-02-14T03:21:39;8.38;;;5.55;;
79130;SDS011;72396;45.194;9.142;2024-02-14T03:24:04;8.65;;;6.05;;
79130;SDS011;72396;45.194;9.142;2024-02-14T03:26:30;11.38;;;5.63;;
79130;SDS011;72396;45.194;9.142;2024-02-14T03:29:02;9.27;;;6.05;;
79130;SDS011;72396;45.194;9.142;2024-02-14T03:31:31;12.95;;;7.35;;
79130;SDS011;72396;45.194;9.142;2024-02-14T03:33:57;10.65;;;6.78;;
79130;SDS011;72396;45.194;9.142;2024-02-14T03:36:22;13.77;;;7.35;;
79130;SDS011;72396;45.194;9.142;2024-02-14T03:38:49;13.00;;;7.22;;
79130;SDS011;72396;45.194;9.142;2024-02-14T03:41:14;10.93;;;6.43;;
79130;SDS011;72396;45.194;9.142;2024-02-14T03:43:40;10.20;;;5.90;;
79130;SDS011;72396;45.194;9.142;2024-02-14T03:46:05;10.70;;;6.50;;
79130;SDS011;72396;45.194;9.142;2024-02-14T03:48:31;11.20;;;6.43;;
79130;SDS011;72396;45.194;9.142;2024-02-14T03:50:56;11.50;;;6.93;;
79130;SDS011;72396;45.194;9.142;2024-02-14T03:53:22;10.82;;;6.40;;
79130;SDS011;72396;45.194;9.142;2024-02-14T03:55:48;10.77;;;6.80;;
79130;SDS011;72396;45.194;9.142;2024-02-14T03:58:14;11.48;;;7.28;;
79130;SDS011;72396;45.194;9.142;2024-02-14T04:00:42;12.73;;;7.32;;
79130;SDS011;72396;45.194;9.142;2024-02-14T04:03:11;11.52;;;7.25;;
79130;SDS011;72396;45.194;9.142;2024-02-14T04:05:37;11.13;;;6.82;;
79130;SDS011;72396;45.194;9.142;2024-02-14T04:08:02;12.68;;;6.78;;
79130;SDS011;72396;45.194;9.142;2024-02-14T04:10:28;12.98;;;6.88;;
79130;SDS011;72396;45.194;9.142;2024-02-14T04:12:53;10.05;;;6.47;;
79130;SDS011;72396;45.194;9.142;2024-02-14T04:15:19;12.90;;;6.95;;
79130;SDS011;72396;45.194;9.142;2024-02-14T04:17:44;9.25;;;6.43;;
79130;SDS011;72396;45.194;9.142;2024-02-14T04:20:10;10.73;;;6.68;;
79130;SDS011;72396;45.194;9.142;2024-02-14T04:22:35;10.00;;;6.53;;
79130;SDS011;72396;45.194;9.142;2024-02-14T04:25:00;12.93;;;6.65;;
79130;SDS011;72396;45.194;9.142;2024-02-14T04:27:27;10.23;;;6.22;;
79130;SDS011;72396;45.194;9.142;2024-02-14T04:29:53;10.43;;;6.47;;
79130;SDS011;72396;45.194;9.142;2024-02-14T04:32:18;11.65;;;6.68;;
79130;SDS011;72396;45.194;9.142;2024-02-14T04:34:44;11.20;;;6.90;;
79130;SDS011;72396;45.194;9.142;2024-02-14T04:37:10;9.93;;;6.68;;
79130;SDS011;72396;45.194;9.142;2024-02-14T04:39:38;10.02;;;6.35;;
79130;SDS011;72396;45.194;9.142;2024-02-14T04:42:04;8.98;;;5.88;;
79130;SDS011;72396;45.194;9.142;2024-02-14T04:44:30;12.35;;;7.35;;
79130;SDS011;72396;45.194;9.142;2024-02-14T04:46:56;11.35;;;7.10;;
79130;SDS011;72396;45.194;9.142;2024-02-14T04:49:24;9.73;;;6.72;;
79130;SDS011;72396;45.194;9.142;2024-02-14T04:51:49;9.50;;;6.75;;
79130;SDS011;72396;45.194;9.142;2024-02-14T04:54:16;12.30;;;6.72;;
79130;SDS011;72396;45.194;9.142;2024-02-14T04:56:41;11.38;;;6.72;;
79130;SDS011;72396;45.194;9.142;2024-02-14T04:59:07;13.30;;;6.13;;
79130;SDS011;72396;45.194;9.142;2024-02-14T05:01:33;9.73;;;6.18;;
79130;SDS011;72396;45.194;9.142;2024-02-14T05:03:59;9.82;;;6.20;;
79130;SDS011;72396;45.194;9.142;2024-02-14T05:06:24;10.68;;;5.57;;
79130;SDS011;72396;45.194;9.142;2024-02-14T05:08:49;11.65;;;6.63;;
79130;SDS011;72396;45.194;9.142;2024-02-14T05:11:16;8.68;;;5.78;;
79130;SDS011;72396;45.194;9.142;2024-02-14T05:13:42;10.00;;;5.75;;
79130;SDS011;72396;45.194;9.142;2024-02-14T05:16:07;11.00;;;6.40;;
79130;SDS011;72396;45.194;9.142;2024-02-14T05:18:35;9.18;;;6.07;;
79130;SDS011;72396;45.194;9.142;2024-02-14T05:21:04;11.85;;;6.22;;
79130;SDS011;72396;45.194;9.142;2024-02-14T05:23:30;9.32;;;5.82;;
79130;SDS011;72396;45.194;9.142;2024-02-14T05:25:55;11.15;;;6.68;;
79130;SDS011;72396;45.194;9.142;2024-02-14T05:28:21;12.68;;;5.97;;
79130;SDS011;72396;45.194;9.142;2024-02-14T05:30:46;10.60;;;5.68;;
79130;SDS011;72396;45.194;9.142;2024-02-14T05:33:12;9.07;;;5.72;;
79130;SDS011;72396;45.194;9.142;2024-02-14T05:35:37;10.55;;;6.35;;
79130;SDS011;72396;45.194;9.142;2024-02-14T05:38:02;9.20;;;5.80;;
79130;SDS011;72396;45.194;9.142;2024-02-14T05:40:29;10.20;;;5.57;;
79130;SDS011;72396;45.194;9.142;2024-02-14T05:42:55;12.18;;;5.97;;
79130;SDS011;72396;45.194;9.142;2024-02-14T05:45:21;10.60;;;6.63;;
79130;SDS011;72396;45.194;9.142;2024-02-14T05:47:46;10.90;;;6.82;;
79130;SDS011;72396;45.194;9.142;2024-02-14T05:50:12;9.32;;;5.70;;
79130;SDS011;72396;45.194;9.142;2024-02-14T05:52:38;10.90;;;6.22;;
79130;SDS011;72396;45.194;9.142;2024-02-14T05:55:04;8.52;;;5.63;;
79130;SDS011;72396;45.194;9.142;2024-02-14T05:57:30;10.65;;;5.78;;
79130;SDS011;72396;45.194;9.142;2024-02-14T05:59:55;8.95;;;6.00;;
79130;SDS011;72396;45.194;9.142;2024-02-14T06:02:20;10.77;;;6.00;;
79130;SDS011;72396;45.194;9.142;2024-02-14T06:04:46;13.00;;;5.95;;
79130;SDS011;72396;45.194;9.142;2024-02-14T06:07:12;11.60;;;6.03;;
79130;SDS011;72396;45.194;9.142;2024-02-14T06:09:37;9.25;;;6.10;;
79130;SDS011;72396;45.194;9.142;2024-02-14T06:12:03;10.70;;;5.18;;
79130;SDS011;72396;45.194;9.142;2024-02-14T06:14:29;9.00;;;5.63;;
79130;SDS011;72396;45.194;9.142;2024-02-14T06:16:56;8.43;;;5.05;;
79130;SDS011;72396;45.194;9.142;2024-02-14T06:19:22;9.50;;;5.55;;
79130;SDS011;72396;45.194;9.142;2024-02-14T06:21:48;9.93;;;5.93;;
79130;SDS011;72396;45.194;9.142;2024-02-14T06:24:13;7.88;;;5.43;;
79130;SDS011;72396;45.194;9.142;2024-02-14T06:26:39;9.73;;;5.40;;
79130;SDS011;72396;45.194;9.142;2024-02-14T06:29:04;10.13;;;5.65;;
79130;SDS011;72396;45.194;9.142;2024-02-14T06:31:30;10.20;;;5.85;;
79130;SDS011;72396;45.194;9.142;2024-02-14T06:33:55;11.15;;;6.00;;
79130;SDS011;72396;45.194;9.142;2024-02-14T06:36:20;10.65;;;5.93;;
79130;SDS011;72396;45.194;9.142;2024-02-14T06:38:46;11.15;;;5.53;;
79130;SDS011;72396;45.194;9.142;2024-02-14T06:41:11;9.57;;;5.57;;
79130;SDS011;72396;45.194;9.142;2024-02-14T06:43:37;9.02;;;5.40;;
79130;SDS011;72396;45.194;9.142;2024-02-14T06:46:04;9.93;;;6.32;;
79130;SDS011;72396;45.194;9.142;2024-02-14T06:48:30;8.82;;;5.15;;
79130;SDS011;72396;45.194;9.142;2024-02-14T06:50:55;9.98;;;5.47;;
79130;SDS011;72396;45.194;9.142;2024-02-14T06:53:20;8.90;;;5.68;;
79130;SDS011;72396;45.194;9.142;2024-02-14T06:55:46;10.93;;;5.78;;
79130;SDS011;72396;45.194;9.142;2024-02-14T06:58:11;8.30;;;6.03;;
79130;SDS011;72396;45.194;9.142;2024-02-14T07:00:36;8.70;;;5.97;;
79130;SDS011;72396;45.194;9.142;2024-02-14T07:03:02;9.70;;;5.65;;
79130;SDS011;72396;45.194;9.142;2024-02-14T07:05:27;9.32;;;5.45;;
79130;SDS011;72396;45.194;9.142;2024-02-14T07:07:54;10.90;;;5.97;;
79130;SDS011;72396;45.194;9.142;2024-02-14T07:10:20;11.43;;;6.03;;
79130;SDS011;72396;45.194;9.142;2024-02-14T07:12:45;9.77;;;6.25;;
79130;SDS011;72396;45.194;9.142;2024-02-14T07:15:10;9.98;;;6.05;;
79130;SDS011;72396;45.194;9.142;2024-02-14T07:17:36;10.70;;;7.20;;
79130;SDS011;72396;45.194;9.142;2024-02-14T07:20:03;10.70;;;6.40;;
79130;SDS011;72396;45.194;9.142;2024-02-14T07:22:29;11.30;;;6.10;;
79130;SDS011;72396;45.194;9.142;2024-02-14T07:24:58;11.13;;;6.20;;
79130;SDS011;72396;45.194;9.142;2024-02-14T07:27:23;10.88;;;6.05;;
79130;SDS011;72396;45.194;9.142;2024-02-14T07:29:49;13.20;;;6.40;;
79130;SDS011;72396;45.194;9.142;2024-02-14T07:32:14;10.00;;;6.00;;
79130;SDS011;72396;45.194;9.142;2024-02-14T07:34:41;10.00;;;6.07;;
79130;SDS011;72396;45.194;9.142;2024-02-14T07:37:07;10.15;;;5.90;;
79130;SDS011;72396;45.194;9.142;2024-02-14T07:39:32;10.55;;;6.57;;
79130;SDS011;72396;45.194;9.142;2024-02-14T07:41:59;9.85;;;7.05;;
79130;SDS011;72396;45.194;9.142;2024-02-14T07:44:25;10.20;;;6.30;;
79130;SDS011;72396;45.194;9.142;2024-02-14T07:46:51;10.88;;;6.43;;
79130;SDS011;72396;45.194;9.142;2024-02-14T07:49:17;12.10;;;7.15;;
79130;SDS011;72396;45.194;9.142;2024-02-14T07:51:42;10.13;;;5.95;;
79130;SDS011;72396;45.194;9.142;2024-02-14T07:54:08;12.55;;;7.10;;
79130;SDS011;72396;45.194;9.142;2024-02-14T07:56:33;10.63;;;6.40;;
79130;SDS011;72396;45.194;9.142;2024-02-14T07:58:58;8.98;;;6.25;;
79130;SDS011;72396;45.194;9.142;2024-02-14T08:01:25;11.35;;;7.10;;
79130;SDS011;72396;45.194;9.142;2024-02-14T08:03:50;12.50;;;8.10;;
79130;SDS011;72396;45.194;9.142;2024-02-14T08:06:16;10.73;;;6.68;;
79130;SDS011;72396;45.194;9.142;2024-02-14T08:08:42;12.70;;;6.82;;
79130;SDS011;72396;45.194;9.142;2024-02-14T08:11:08;11.18;;;6.43;;
79130;SDS011;72396;45.194;9.142;2024-02-14T08:13:34;12.55;;;6.75;;
79130;SDS011;72396;45.194;9.142;2024-02-14T08:16:00;11.55;;;7.35;;
79130;SDS011;72396;45.194;9.142;2024-02-14T08:18:25;10.93;;;7.20;;
79130;SDS011;72396;45.194;9.142;2024-02-14T08:20:52;10.80;;;7.47;;
79130;SDS011;72396;45.194;9.142;2024-02-14T08:23:18;10.35;;;6.88;;
79130;SDS011;72396;45.194;9.142;2024-02-14T08:25:45;10.85;;;6.57;;
79130;SDS011;72396;45.194;9.142;2024-02-14T08:28:10;12.20;;;7.45;;
79130;SDS011;72396;45.194;9.142;2024-02-14T08:30:36;10.80;;;7.05;;
79130;SDS011;72396;45.194;9.142;2024-02-14T08:33:02;12.38;;;7.55;;
79130;SDS011;72396;45.194;9.142;2024-02-14T08:35:28;11.65;;;7.65;;
79130;SDS011;72396;45.194;9.142;2024-02-14T08:37:54;13.82;;;7.78;;
79130;SDS011;72396;45.194;9.142;2024-02-14T08:40:19;12.05;;;6.90;;
79130;SDS011;72396;45.194;9.142;2024-02-14T08:42:45;11.55;;;7.47;;
79130;SDS011;72396;45.194;9.142;2024-02-14T08:45:10;10.32;;;7.68;;
79130;SDS011;72396;45.194;9.142;2024-02-14T08:47:36;10.77;;;7.68;;
79130;SDS011;72396;45.194;9.142;2024-02-14T08:50:01;11.40;;;7.70;;
79130;SDS011;72396;45.194;9.142;2024-02-14T08:52:28;11.13;;;7.97;;
79130;SDS011;72396;45.194;9.142;2024-02-14T08:54:54;14.52;;;7.75;;
79130;SDS011;72396;45.194;9.142;2024-02-14T08:57:19;11.27;;;7.70;;
79130;SDS011;72396;45.194;9.142;2024-02-14T08:59:45;13.50;;;7.93;;
79130;SDS011;72396;45.194;9.142;2024-02-14T09:02:13;13.23;;;7.88;;
79130;SDS011;72396;45.194;9.142;2024-02-14T09:04:39;11.30;;;7.97;;
79130;SDS011;72396;45.194;9.142;2024-02-14T09:07:06;13.60;;;8.15;;
79130;SDS011;72396;45.194;9.142;2024-02-14T09:09:32;11.05;;;8.20;;
79130;SDS011;72396;45.194;9.142;2024-02-14T09:11:57;12.50;;;7.30;;
79130;SDS011;72396;45.194;9.142;2024-02-14T09:14:27;14.40;;;7.72;;
79130;SDS011;72396;45.194;9.142;2024-02-14T09:16:53;17.33;;;9.32;;
79130;SDS011;72396;45.194;9.142;2024-02-14T09:19:18;13.55;;;8.68;;
79130;SDS011;72396;45.194;9.142;2024-02-14T09:21:43;16.52;;;8.88;;
79130;SDS011;72396;45.194;9.142;2024-02-14T09:24:09;18.73;;;8.95;;
79130;SDS011;72396;45.194;9.142;2024-02-14T09:26:34;15.10;;;8.40;;
79130;SDS011;72396;45.194;9.142;2024-02-14T09:29:00;13.70;;;8.13;;
79130;SDS011;72396;45.194;9.142;2024-02-14T09:31:25;11.98;;;8.13;;
79130;SDS011;72396;45.194;9.142;2024-02-14T09:33:50;15.40;;;9.82;;
79130;SDS011;72396;45.194;9.142;2024-02-14T09:36:18;15.63;;;10.07;;
79130;SDS011;72396;45.194;9.142;2024-02-14T09:38:44;14.20;;;9.90;;
79130;SDS011;72396;45.194;9.142;2024-02-14T09:43:36;15.57;;;9.57;;
79130;SDS011;72396;45.194;9.142;2024-02-14T09:46:06;13.82;;;8.90;;
79130;SDS011;72396;45.194;9.142;2024-02-14T09:48:32;15.50;;;9.32;;
79130;SDS011;72396;45.194;9.142;2024-02-14T09:50:58;14.18;;;8.95;;
79130;SDS011;72396;45.194;9.142;2024-02-14T09:53:24;15.48;;;9.10;;
79130;SDS011;72396;45.194;9.142;2024-02-14T09:55:52;15.68;;;9.57;;
79130;SDS011;72396;45.194;9.142;2024-02-14T09:58:19;14.43;;;9.57;;
79130;SDS011;72396;45.194;9.142;2024-02-14T10:00:45;18.83;;;10.60;;
79130;SDS011;72396;45.194;9.142;2024-02-14T10:03:10;16.88;;;10.65;;
79130;SDS011;72396;45.194;9.142;2024-02-14T10:05:36;16.33;;;10.80;;
79130;SDS011;72396;45.194;9.142;2024-02-14T10:08:01;14.02;;;9.65;;
79130;SDS011;72396;45.194;9.142;2024-02-14T10:10:28;15.65;;;10.48;;
79130;SDS011;72396;45.194;9.142;2024-02-14T10:12:56;15.70;;;10.50;;
79130;SDS011;72396;45.194;9.142;2024-02-14T10:15:22;19.35;;;10.68;;
79130;SDS011;72396;45.194;9.142;2024-02-14T10:17:47;16.65;;;10.75;;
79130;SDS011;72396;45.194;9.142;2024-02-14T10:20:16;18.33;;;10.80;;
79130;SDS011;72396;45.194;9.142;2024-02-14T10:22:42;20.60;;;10.93;;
79130;SDS011;72396;45.194;9.142;2024-02-14T10:25:07;18.00;;;10.15;;
79130;SDS011;72396;45.194;9.142;2024-02-14T10:27:37;19.73;;;11.07;;
79130;SDS011;72396;45.194;9.142;2024-02-14T10:30:04;16.60;;;10.32;;
79130;SDS011;72396;45.194;9.142;2024-02-14T10:32:37;17.70;;;10.70;;
79130;SDS011;72396;45.194;9.142;2024-02-14T10:35:06;16.55;;;10.77;;
79130;SDS011;72396;45.194;9.142;2024-02-14T10:37:37;17.10;;;10.45;;
79130;SDS011;72396;45.194;9.142;2024-02-14T10:40:03;15.35;;;10.32;;
79130;SDS011;72396;45.194;9.142;2024-02-14T10:42:32;18.58;;;10.52;;
79130;SDS011;72396;45.194;9.142;2024-02-14T10:44:59;15.70;;;10.45;;
79130;SDS011;72396;45.194;9.142;2024-02-14T10:47:26;17.27;;;11.25;;
79130;SDS011;72396;45.194;9.142;2024-02-14T10:50:05;17.20;;;10.75;;
79130;SDS011;72396;45.194;9.142;2024-02-14T10:52:32;17.42;;;10.15;;
79130;SDS011;72396;45.194;9.142;2024-02-14T10:55:01;14.98;;;10.40;;
79130;SDS011;72396;45.194;9.142;2024-02-14T10:57:28;16.48;;;10.13;;
79130;SDS011;72396;45.194;9.142;2024-02-14T10:59:55;16.25;;;9.93;;
79130;SDS011;72396;45.194;9.142;2024-02-14T11:02:22;15.30;;;11.35;;
79130;SDS011;72396;45.194;9.142;2024-02-14T11:04:48;17.77;;;11.85;;
79130;SDS011;72396;45.194;9.142;2024-02-14T11:07:18;18.50;;;11.45;;
79130;SDS011;72396;45.194;9.142;2024-02-14T11:09:45;18.85;;;10.40;;
79130;SDS011;72396;45.194;9.142;2024-02-14T11:12:11;16.27;;;10.23;;
79130;SDS011;72396;45.194;9.142;2024-02-14T11:14:36;18.90;;;10.48;;
79130;SDS011;72396;45.194;9.142;2024-02-14T11:17:13;16.67;;;10.45;;
79130;SDS011;72396;45.194;9.142;2024-02-14T11:19:38;18.52;;;9.18;;
79130;SDS011;72396;45.194;9.142;2024-02-14T11:22:38;14.82;;;9.20;;
79130;SDS011;72396;45.194;9.142;2024-02-14T11:25:05;16.40;;;10.25;;
79130;SDS011;72396;45.194;9.142;2024-02-14T11:27:32;14.38;;;8.77;;
79130;SDS011;72396;45.194;9.142;2024-02-14T11:29:59;15.18;;;9.50;;
79130;SDS011;72396;45.194;9.142;2024-02-14T11:32:27;16.75;;;10.13;;
79130;SDS011;72396;45.194;9.142;2024-02-14T11:34:55;15.38;;;8.30;;
79130;SDS011;72396;45.194;9.142;2024-02-14T11:37:27;14.40;;;9.23;;
79130;SDS011;72396;45.194;9.142;2024-02-14T11:39:54;12.88;;;9.05;;
79130;SDS011;72396;45.194;9.142;2024-02-14T11:42:23;14.75;;;9.63;;
79130;SDS011;72396;45.194;9.142;2024-02-14T11:44:48;15.50;;;9.40;;
79130;SDS011;72396;45.194;9.142;2024-02-14T11:47:14;15.40;;;9.20;;
79130;SDS011;72396;45.194;9.142;2024-02-14T11:49:39;12.52;;;9.00;;
79130;SDS011;72396;45.194;9.142;2024-02-14T11:52:09;15.80;;;9.68;;
79130;SDS011;72396;45.194;9.142;2024-02-14T11:54:34;14.45;;;8.90;;
79130;SDS011;72396;45.194;9.142;2024-02-14T11:57:00;15.13;;;10.55;;
79130;SDS011;72396;45.194;9.142;2024-02-14T11:59:25;15.38;;;9.45;;
79130;SDS011;72396;45.194;9.142;2024-02-14T12:01:51;16.13;;;9.50;;
79130;SDS011;72396;45.194;9.142;2024-02-14T12:04:17;16.73;;;9.45;;
79130;SDS011;72396;45.194;9.142;2024-02-14T12:06:42;15.73;;;8.88;;
79130;SDS011;72396;45.194;9.142;2024-02-14T12:09:08;17.48;;;9.63;;
79130;SDS011;72396;45.194;9.142;2024-02-14T12:11:38;14.95;;;9.73;;
79130;SDS011;72396;45.194;9.142;2024-02-14T12:16:32;15.07;;;8.57;;
79130;SDS011;72396;45.194;9.142;2024-02-14T12:19:19;15.98;;;9.65;;
79130;SDS011;72396;45.194;9.142;2024-02-14T12:21:45;13.88;;;8.80;;
79130;SDS011;72396;45.194;9.142;2024-02-14T12:24:11;13.98;;;8.18;;
79130;SDS011;72396;45.194;9.142;2024-02-14T12:26:40;14.52;;;8.68;;
79130;SDS011;72396;45.194;9.142;2024-02-14T12:29:07;14.90;;;8.85;;
79130;SDS011;72396;45.194;9.142;2024-02-14T12:31:38;14.80;;;8.43;;
79130;SDS011;72396;45.194;9.142;2024-02-14T12:34:03;16.80;;;10.68;;
79130;SDS011;72396;45.194;9.142;2024-02-14T12:36:30;16.25;;;9.30;;
79130;SDS011;72396;45.194;9.142;2024-02-14T12:38:56;19.60;;;10.23;;
79130;SDS011;72396;45.194;9.142;2024-02-14T12:41:22;16.75;;;9.80;;
79130;SDS011;72396;45.194;9.142;2024-02-14T12:43:49;14.75;;;9.30;;
79130;SDS011;72396;45.194;9.142;2024-02-14T12:46:15;15.27;;;9.38;;
79130;SDS011;72396;45.194;9.142;2024-02-14T12:48:40;16.55;;;10.00;;
79130;SDS011;72396;45.194;9.142;2024-02-14T12:51:06;17.40;;;9.43;;
79130;SDS011;72396;45.194;9.142;2024-02-14T12:53:32;17.15;;;9.38;;
79130;SDS011;72396;45.194;9.142;2024-02-14T12:55:57;14.00;;;8.75;;
79130;SDS011;72396;45.194;9.142;2024-02-14T12:58:23;14.25;;;8.52;;
79130;SDS011;72396;45.194;9.142;2024-02-14T13:00:48;13.38;;;8.20;;
79130;SDS011;72396;45.194;9.142;2024-02-14T13:03:14;13.95;;;8.57;;
79130;SDS011;72396;45.194;9.142;2024-02-14T13:05:39;12.07;;;7.72;;
79130;SDS011;72396;45.194;9.142;2024-02-14T13:08:05;14.30;;;8.27;;
79130;SDS011;72396;45.194;9.142;2024-02-14T13:10:31;13.25;;;7.85;;
79130;SDS011;72396;45.194;9.142;2024-02-14T13:12:57;17.15;;;8.77;;
79130;SDS011;72396;45.194;9.142;2024-02-14T13:15:22;12.18;;;8.30;;
79130;SDS011;72396;45.194;9.142;2024-02-14T13:17:48;15.18;;;8.63;;
79130;SDS011;72396;45.194;9.142;2024-02-14T13:20:13;15.23;;;9.05;;
79130;SDS011;72396;45.194;9.142;2024-02-14T13:22:40;12.90;;;7.95;;
79130;SDS011;72396;45.194;9.142;2024-02-14T13:25:06;13.35;;;7.72;;
79130;SDS011;72396;45.194;9.142;2024-02-14T13:27:32;13.90;;;7.95;;
79130;SDS011;72396;45.194;9.142;2024-02-14T13:29:58;14.55;;;8.10;;
79130;SDS011;72396;45.194;9.142;2024-02-14T13:32:24;13.90;;;7.95;;
79130;SDS011;72396;45.194;9.142;2024-02-14T13:34:49;13.52;;;8.00;;
79130;SDS011;72396;45.194;9.142;2024-02-14T13:37:15;19.40;;;7.97;;
79130;SDS011;72396;45.194;9.142;2024-02-14T13:39:40;13.45;;;8.20;;
79130;SDS011;72396;45.194;9.142;2024-02-14T13:42:06;12.25;;;7.45;;
79130;SDS011;72396;45.194;9.142;2024-02-14T13:44:33;15.63;;;8.35;;
79130;SDS011;72396;45.194;9.142;2024-02-14T13:46:58;14.80;;;8.38;;
79130;SDS011;72396;45.194;9.142;2024-02-14T13:49:24;14.68;;;7.43;;
79130;SDS011;72396;45.194;9.142;2024-02-14T13:51:51;16.52;;;7.75;;
79130;SDS011;72396;45.194;9.142;2024-02-14T13:54:20;12.18;;;7.43;;
79130;SDS011;72396;45.194;9.142;2024-02-14T13:56:46;13.75;;;6.97;;
79130;SDS011;72396;45.194;9.142;2024-02-14T13:59:13;14.30;;;7.60;;
79130;SDS011;72396;45.194;9.142;2024-02-14T14:01:39;12.00;;;7.63;;
79130;SDS011;72396;45.194;9.142;2024-02-14T14:04:05;13.75;;;7.97;;
79130;SDS011;72396;45.194;9.142;2024-02-14T14:06:30;12.57;;;7.32;;
79130;SDS011;72396;45.194;9.142;2024-02-14T14:08:56;14.98;;;7.55;;
79130;SDS011;72396;45.194;9.142;2024-02-14T14:11:21;13.55;;;7.60;;
79130;SDS011;72396;45.194;9.142;2024-02-14T14:13:47;11.25;;;7.30;;
79130;SDS011;72396;45.194;9.142;2024-02-14T14:16:12;15.48;;;9.02;;
79130;SDS011;72396;45.194;9.142;2024-02-14T14:18:38;13.30;;;7.78;;
79130;SDS011;72396;45.194;9.142;2024-02-14T14:21:04;12.88;;;7.22;;
79130;SDS011;72396;45.194;9.142;2024-02-14T14:23:30;14.27;;;7.75;;
79130;SDS011;72396;45.194;9.142;2024-02-14T14:25:55;11.60;;;6.90;;
79130;SDS011;72396;45.194;9.142;2024-02-14T14:28:20;13.13;;;7.03;;
79130;SDS011;72396;45.194;9.142;2024-02-14T14:30:50;14.38;;;6.90;;
79130;SDS011;72396;45.194;9.142;2024-02-14T14:33:16;14.98;;;6.65;;
79130;SDS011;72396;45.194;9.142;2024-02-14T14:35:41;12.60;;;6.75;;